Time;durP1;ratioP1;P1;durP2;ratioP2;P2;SDS_P1;SDS_P2;PMS_P1;PMS_P2;Temp;Humidity;BMP_temperature;BMP_pressure;BME280_temperature;BME280_humidity;BME280_pressure;Samples;Min_cycle;Max_cycle;Signal;HPM_P1;HPM_P2
2022/08/30 00:02:55;;;;;;;13.93;3.92;;;;;;;27.36;38.29;98641.38;5011705;28;20172;-75
2022/08/30 00:05:20;;;;;;;13.25;4.00;;;;;;;27.38;38.28;98647.31;5012282;28;20029;-78
2022/08/30 00:07:46;;;;;;;12.32;3.38;;;;;;;27.35;38.37;98643.22;5010815;28;20037;-77
2022/08/30 00:10:11;;;;;;;10.45;3.70;;;;;;;27.30;37.96;98629.66;5010348;28;20050;-77
2022/08/30 00:12:37;;;;;;;10.38;3.40;;;;;;;27.29;38.22;98641.41;5011116;28;20544;-77
2022/08/30 00:15:04;;;;;;;11.35;3.22;;;;;;;27.31;38.27;98642.03;5011010;28;20036;-77
2022/08/30 00:17:30;;;;;;;15.43;3.72;;;;;;;27.30;38.33;98640.38;5011318;28;20053;-77
2022/08/30 00:19:55;;;;;;;12.77;3.88;;;;;;;27.32;38.26;98651.69;5011228;28;20041;-76
2022/08/30 00:22:21;;;;;;;11.05;3.95;;;;;;;27.32;38.35;98642.84;5010677;28;20482;-76
2022/08/30 00:24:46;;;;;;;11.10;3.80;;;;;;;27.32;38.09;98638.31;5011044;28;20030;-76
2022/08/30 00:27:12;;;;;;;14.50;4.00;;;;;;;27.30;38.14;98640.38;5028662;28;20021;-76
2022/08/30 00:29:38;;;;;;;9.57;3.83;;;;;;;27.24;38.44;98634.06;4998312;28;20087;-79
2022/08/30 00:32:04;;;;;;;12.07;3.78;;;;;;;27.24;38.37;98635.91;5030716;28;20520;-79
2022/08/30 00:34:31;;;;;;;12.20;4.38;;;;;;;27.25;38.42;98634.88;4997856;28;20034;-76
2022/08/30 00:36:57;;;;;;;18.48;4.05;;;;;;;27.25;38.36;98632.22;5014590;28;20117;-77
2022/08/30 00:39:23;;;;;;;15.07;3.80;;;;;;;27.20;38.72;98624.00;5015522;28;20032;-77
2022/08/30 00:41:49;;;;;;;11.30;3.72;;;;;;;27.21;38.73;98623.78;5014714;28;20029;-78
2022/08/30 00:44:14;;;;;;;16.63;4.30;;;;;;;27.25;38.80;98632.22;4997741;28;20485;-78
2022/08/30 00:46:40;;;;;;;15.15;4.15;;;;;;;27.22;38.83;98633.47;5013803;28;20041;-78
2022/08/30 00:49:06;;;;;;;15.52;3.78;;;;;;;27.22;38.71;98627.31;5015865;28;20116;-78
2022/08/30 00:51:32;;;;;;;14.60;3.90;;;;;;;27.21;38.63;98628.34;5030824;28;20029;-78
2022/08/30 00:53:58;;;;;;;14.13;4.30;;;;;;;27.20;38.38;98630.22;5014643;28;20053;-78
2022/08/30 00:56:24;;;;;;;14.98;4.10;;;;;;;27.20;38.62;98626.69;5014202;28;20085;-78
2022/08/30 00:58:50;;;;;;;13.65;3.85;;;;;;;27.17;38.90;98633.34;5014144;28;20049;-78
2022/08/30 01:01:16;;;;;;;10.70;4.22;;;;;;;27.14;39.17;98625.75;4997858;28;20049;-78
2022/08/30 01:03:42;;;;;;;9.23;4.10;;;;;;;27.12;39.45;98627.84;4997802;28;20033;-78
2022/08/30 01:06:08;;;;;;;12.63;3.85;;;;;;;27.06;39.61;98623.41;4997746;28;20481;-78
2022/08/30 01:08:34;;;;;;;12.50;4.05;;;;;;;27.02;39.64;98628.38;5013718;28;20053;-78
2022/08/30 01:10:59;;;;;;;9.75;4.22;;;;;;;27.01;39.69;98628.59;5000865;28;20025;-78
2022/08/30 01:13:25;;;;;;;12.35;4.22;;;;;;;26.99;40.18;98625.34;5017177;28;20447;-78
2022/08/30 01:15:50;;;;;;;14.00;4.05;;;;;;;26.96;40.17;98631.97;5000713;28;20030;-78
2022/08/30 01:18:17;;;;;;;15.38;4.15;;;;;;;26.93;40.53;98628.91;5016916;28;20035;-78
2022/08/30 01:20:51;;;;;;;11.48;4.20;;;;;;;26.93;40.25;98629.75;5033808;28;20485;-79
2022/08/30 01:23:17;;;;;;;12.25;4.00;;;;;;;26.88;40.35;98621.56;5017027;28;20059;-78
2022/08/30 01:25:44;;;;;;;15.57;4.25;;;;;;;26.84;40.52;98629.25;5017265;28;20029;-78
2022/08/30 01:28:12;;;;;;;12.82;4.20;;;;;;;26.79;40.33;98628.28;5000217;28;20029;-78
2022/08/30 01:30:38;;;;;;;14.18;4.10;;;;;;;26.80;40.78;98628.03;5017169;28;20033;-78
2022/08/30 01:33:05;;;;;;;18.50;4.75;;;;;;;26.79;40.55;98629.09;5017054;28;20492;-78
2022/08/30 01:35:59;;;;;;;12.68;4.40;;;;;;;26.78;40.72;98635.50;5016850;28;20163;-78
2022/08/30 01:38:35;;;;;;;12.80;4.70;;;;;;;26.71;40.47;98626.75;5015525;28;20029;-78
2022/08/30 01:41:31;;;;;;;10.50;4.13;;;;;;;26.67;40.67;98626.34;5017224;28;20029;-77
2022/08/30 01:43:58;;;;;;;10.32;4.63;;;;;;;26.66;41.32;98629.25;5015799;28;20060;-77
2022/08/30 01:46:26;;;;;;;13.63;4.63;;;;;;;26.59;41.42;98620.47;5016390;28;20056;-78
2022/08/30 01:48:52;;;;;;;15.05;4.35;;;;;;;26.58;41.83;98632.19;5016338;28;20025;-78
2022/08/30 01:51:18;;;;;;;13.13;4.28;;;;;;;26.56;41.97;98631.63;5016566;28;20037;-78
2022/08/30 01:53:43;;;;;;;16.20;4.45;;;;;;;26.50;42.02;98631.47;5000357;28;20515;-78
2022/08/30 01:56:09;;;;;;;13.07;4.43;;;;;;;26.49;41.88;98623.66;4999927;28;20029;-78
2022/08/30 01:58:35;;;;;;;8.13;4.18;;;;;;;26.47;42.21;98637.28;5016094;28;20029;-78
2022/08/30 02:01:03;;;;;;;12.88;4.25;;;;;;;26.40;41.97;98625.00;5016251;28;20068;-78
2022/08/30 02:03:31;;;;;;;10.52;4.30;;;;;;;26.41;42.14;98629.28;5016142;28;20504;-78
2022/08/30 02:06:01;;;;;;;14.35;4.35;;;;;;;26.39;42.26;98626.84;5016684;28;20468;-78
2022/08/30 02:08:27;;;;;;;14.32;4.55;;;;;;;26.33;42.25;98620.53;5015836;28;20138;-78
2022/08/30 02:10:52;;;;;;;10.98;4.70;;;;;;;26.35;42.56;98634.50;5015949;28;20061;-78
2022/08/30 02:13:18;;;;;;;9.93;4.50;;;;;;;26.32;42.51;98629.59;5032573;28;20036;-77
2022/08/30 02:15:43;;;;;;;13.38;4.57;;;;;;;26.28;42.62;98623.06;5015857;28;20049;-77
2022/08/30 02:18:09;;;;;;;14.15;4.63;;;;;;;26.25;43.02;98620.00;5032185;28;20029;-77
2022/08/30 02:20:37;;;;;;;14.55;4.55;;;;;;;26.25;43.32;98623.50;5015936;28;20460;-78
2022/08/30 02:23:02;;;;;;;10.10;4.38;;;;;;;26.26;43.33;98618.97;4999582;28;20124;-77
2022/08/30 02:25:28;;;;;;;12.25;4.72;;;;;;;26.26;43.23;98624.31;5015896;28;20065;-78
2022/08/30 02:27:53;;;;;;;17.60;4.97;;;;;;;26.14;43.32;98613.50;5015735;28;20025;-77
2022/08/30 02:30:19;;;;;;;13.38;4.97;;;;;;;26.10;43.36;98618.50;5016048;28;20069;-78
2022/08/30 02:32:44;;;;;;;10.40;4.95;;;;;;;26.11;43.53;98614.78;5031890;28;20029;-78
2022/08/30 02:35:10;;;;;;;15.02;4.60;;;;;;;26.10;43.25;98615.00;5016035;28;20413;-78
2022/08/30 02:37:35;;;;;;;16.23;5.20;;;;;;;26.10;43.34;98623.03;4998834;28;20103;-78
2022/08/30 02:40:01;;;;;;;12.48;5.05;;;;;;;26.05;43.99;98623.69;5015824;28;20065;-78
2022/08/30 02:42:26;;;;;;;16.75;5.10;;;;;;;25.87;43.72;98610.25;4998886;28;20047;-77
2022/08/30 02:44:52;;;;;;;11.07;4.38;;;;;;;25.87;44.20;98611.09;4999009;28;20037;-78
2022/08/30 02:47:17;;;;;;;12.10;4.70;;;;;;;25.91;44.04;98619.47;5015156;28;20099;-78
2022/08/30 02:49:43;;;;;;;13.43;4.90;;;;;;;25.87;43.99;98615.59;5014934;28;20045;-78
2022/08/30 02:52:08;;;;;;;9.88;4.30;;;;;;;25.81;44.23;98601.28;4998905;28;20057;-78
2022/08/30 02:54:34;;;;;;;13.63;4.90;;;;;;;25.87;44.54;98621.78;5032024;28;20087;-78
2022/08/30 02:57:03;;;;;;;15.07;5.00;;;;;;;25.84;44.64;98619.53;5015318;28;20031;-78
2022/08/30 02:59:29;;;;;;;9.05;4.63;;;;;;;25.84;44.47;98611.53;5015756;28;20539;-78
2022/08/30 03:01:54;;;;;;;12.65;4.80;;;;;;;25.86;44.35;98616.66;5015145;28;20116;-77
2022/08/30 03:04:20;;;;;;;11.43;4.90;;;;;;;25.83;44.67;98626.72;5015557;28;20060;-77
2022/08/30 03:06:45;;;;;;;9.95;4.97;;;;;;;25.73;44.97;98621.06;4997982;28;20083;-77
2022/08/30 03:09:11;;;;;;;13.13;5.20;;;;;;;25.75;44.88;98629.69;5031541;28;20054;-76
2022/08/30 03:11:36;;;;;;;10.55;4.65;;;;;;;25.73;44.73;98631.78;4998685;28;20124;-78
2022/08/30 03:14:02;;;;;;;10.77;5.47;;;;;;;25.78;44.99;98649.81;5015053;28;20553;-78
2022/08/30 03:16:28;;;;;;;16.17;4.80;;;;;;;25.72;45.00;98640.00;5014778;28;20104;-78
2022/08/30 03:18:53;;;;;;;15.13;5.50;;;;;;;25.58;45.14;98640.09;5031692;28;20040;-77
2022/08/30 03:21:19;;;;;;;18.60;5.45;;;;;;;25.62;45.07;98645.84;4997783;28;20037;-76
2022/08/30 03:23:44;;;;;;;20.10;5.28;;;;;;;25.65;45.50;98653.44;4998396;28;20056;-76
2022/08/30 03:26:13;;;;;;;13.13;5.13;;;;;;;25.66;45.30;98651.56;4998257;28;20036;-76
2022/08/30 03:28:40;;;;;;;11.73;5.38;;;;;;;25.69;45.30;98651.13;5014051;28;20047;-77
2022/08/30 03:31:07;;;;;;;14.77;5.55;;;;;;;25.58;45.63;98642.75;5015031;28;20033;-79
2022/08/30 03:33:33;;;;;;;13.38;5.10;;;;;;;25.61;45.48;98662.91;5032419;28;20038;-78
2022/08/30 03:35:59;;;;;;;19.15;4.97;;;;;;;25.62;45.55;98660.00;4998145;28;20037;-79
2022/08/30 03:38:24;;;;;;;12.57;5.25;;;;;;;25.62;45.45;98659.19;5014789;28;20076;-79
2022/08/30 03:40:50;;;;;;;17.70;5.70;;;;;;;25.62;45.46;98662.69;5014101;28;20045;-79
2022/08/30 03:43:16;;;;;;;15.68;5.20;;;;;;;25.62;45.55;98665.34;5014576;28;20040;-79
2022/08/30 03:45:41;;;;;;;20.48;5.43;;;;;;;25.63;45.35;98664.34;5014474;28;20038;-80
2022/08/30 03:48:06;;;;;;;15.80;5.30;;;;;;;25.59;45.72;98664.97;5014914;28;20061;-79
2022/08/30 03:50:34;;;;;;;13.85;6.13;;;;;;;25.63;45.81;98663.50;4998195;28;20068;-78
2022/08/30 03:53:00;;;;;;;17.00;5.20;;;;;;;25.68;45.88;98666.34;5015101;28;20029;-80
2022/08/30 03:55:27;;;;;;;13.43;5.28;;;;;;;25.78;45.23;98672.03;4998398;28;20034;-78
2022/08/30 03:57:52;;;;;;;11.05;5.30;;;;;;;25.92;45.22;98682.59;4998087;28;20032;-79
2022/08/30 04:00:19;;;;;;;19.88;5.75;;;;;;;26.05;45.01;98687.88;5014053;28;20403;-79
2022/08/30 04:02:44;;;;;;;12.00;5.55;;;;;;;26.14;44.77;98675.03;5017401;28;20035;-80
2022/08/30 04:05:10;;;;;;;18.73;5.45;;;;;;;26.37;44.52;98690.47;5018541;28;20037;-79
2022/08/30 04:07:35;;;;;;;9.65;4.55;;;;;;;26.48;44.21;98676.34;5018339;28;20033;-79
2022/08/30 04:10:02;;;;;;;9.38;4.80;;;;;;;26.81;43.77;98688.59;5001898;28;20099;-80
2022/08/30 04:12:28;;;;;;;10.98;4.93;;;;;;;27.10;42.65;98680.03;5002004;28;20025;-78
2022/08/30 04:14:53;;;;;;;10.55;5.15;;;;;;;27.27;42.02;98683.69;5018879;28;20412;-79
2022/08/30 04:17:19;;;;;;;14.13;5.82;;;;;;;27.49;41.70;98688.59;5002127;28;20049;-78
2022/08/30 04:19:44;;;;;;;15.75;5.10;;;;;;;27.74;40.90;98680.38;5018238;28;20037;-80
2022/08/30 04:22:09;;;;;;;14.60;6.22;;;;;;;27.88;40.67;98686.34;5036225;28;20033;-79
2022/08/30 04:24:37;;;;;;;13.50;5.45;;;;;;;28.35;39.86;98694.44;5018304;28;20489;-79
2022/08/30 04:27:03;;;;;;;12.80;6.28;;;;;;;28.85;38.65;98685.88;5001861;28;20428;-80
2022/08/30 04:29:28;;;;;;;13.88;6.00;;;;;;;29.31;37.63;98686.00;5017802;28;20029;-79
2022/08/30 04:31:53;;;;;;;17.55;10.32;;;;;;;29.81;37.24;98694.41;5001421;28;20033;-78
2022/08/30 04:34:19;;;;;;;16.50;7.47;;;;;;;30.20;36.19;98692.59;5018542;28;20041;-79
2022/08/30 04:36:44;;;;;;;17.27;7.65;;;;;;;30.79;34.99;98688.59;5001718;28;20049;-85
2022/08/30 04:39:10;;;;;;;16.23;6.28;;;;;;;31.50;34.03;98696.69;5017755;28;20048;-86
2022/08/30 04:41:39;;;;;;;19.65;6.75;;;;;;;32.20;32.62;98691.38;5001668;28;20036;-85
2022/08/30 04:44:05;;;;;;;18.77;5.65;;;;;;;32.75;31.60;98696.56;5018166;28;20030;-86
2022/08/30 04:46:30;;;;;;;20.95;6.13;;;;;;;33.30;30.93;98691.63;5018377;28;20413;-86
2022/08/30 04:48:56;;;;;;;12.40;5.40;;;;;;;33.89;30.23;98699.28;5017787;28;20068;-85
2022/08/30 04:51:21;;;;;;;12.50;5.75;;;;;;;34.42;29.06;98693.53;5001372;28;20489;-85
2022/08/30 04:53:47;;;;;;;12.13;5.90;;;;;;;34.96;28.49;98683.09;5034446;28;20131;-84
2022/08/30 04:56:15;;;;;;;11.18;5.60;;;;;;;35.40;27.61;98698.59;5016903;28;20121;-85
2022/08/30 04:58:42;;;;;;;17.88;5.38;;;;;;;35.82;27.29;98704.56;5020062;28;20037;-85
2022/08/30 05:01:14;;;;;;;17.60;5.03;;;;;;;36.34;26.30;98704.91;4999344;28;20033;-85
2022/08/30 05:03:40;;;;;;;17.00;5.15;;;;;;;36.85;25.68;98698.13;4986300;28;20519;-84
2022/08/30 05:06:05;;;;;;;14.73;4.70;;;;;;;37.42;24.92;98717.25;4985381;28;20037;-87
2022/08/30 05:08:31;;;;;;;10.13;5.03;;;;;;;37.92;24.36;98714.81;5017726;28;20110;-84
2022/08/30 05:10:56;;;;;;;14.48;4.80;;;;;;;38.40;23.84;98712.91;5001692;28;20045;-84
2022/08/30 05:13:22;;;;;;;11.52;4.55;;;;;;;38.85;23.26;98710.44;5001560;28;20022;-85
2022/08/30 05:15:47;;;;;;;11.23;4.55;;;;;;;39.28;22.53;98703.81;5003625;28;20468;-85
2022/08/30 05:18:14;;;;;;;13.23;4.20;;;;;;;39.69;22.25;98703.66;4985360;28;20037;-85
2022/08/30 05:20:40;;;;;;;13.40;4.18;;;;;;;40.07;22.06;98703.28;5003163;28;20069;-86
2022/08/30 05:23:05;;;;;;;10.13;4.07;;;;;;;40.44;21.65;98703.97;5002323;28;20134;-86
2022/08/30 05:25:33;;;;;;;10.82;4.25;;;;;;;40.81;21.29;98706.47;4986194;28;20129;-87
2022/08/30 05:27:58;;;;;;;9.90;3.83;;;;;;;41.12;20.93;98711.88;4988156;28;20061;-83
2022/08/30 05:30:25;;;;;;;14.65;4.00;;;;;;;41.45;20.51;98711.44;5021170;28;20034;-89
2022/08/30 05:32:51;;;;;;;11.90;4.05;;;;;;;41.70;20.41;98718.03;4990384;28;20036;-89
2022/08/30 05:35:17;;;;;;;16.10;4.38;;;;;;;42.00;19.73;98720.06;4990916;28;20025;-89
2022/08/30 05:37:43;;;;;;;10.52;3.70;;;;;;;42.12;19.19;98729.22;5012504;28;20028;-90
2022/08/30 05:40:09;;;;;;;18.47;4.50;;;;;;;42.19;18.92;98714.25;5048881;28;20038;-90
2022/08/30 05:42:35;;;;;;;22.65;4.43;;;;;;;42.26;19.16;98717.28;5010260;28;20280;-91
2022/08/30 05:45:00;;;;;;;17.00;3.90;;;;;;;42.57;18.77;98721.69;5001463;28;20175;-89
2022/08/30 05:47:27;;;;;;;20.53;3.87;;;;;;;42.81;18.85;98726.56;5008827;28;20112;-88
2022/08/30 05:49:52;;;;;;;12.95;3.75;;;;;;;43.07;18.57;98725.63;5024288;28;20033;-87
2022/08/30 05:52:19;;;;;;;16.75;3.90;;;;;;;43.28;18.45;98725.63;4989203;28;20416;-89
2022/08/30 05:54:45;;;;;;;12.82;4.32;;;;;;;43.46;18.29;98715.31;5013156;28;20053;-90
2022/08/30 05:57:10;;;;;;;11.10;3.60;;;;;;;43.68;17.97;98728.72;5042775;28;20567;-89
2022/08/30 05:59:36;;;;;;;10.40;4.07;;;;;;;43.82;17.99;98725.66;5042411;28;20071;-90
2022/08/30 06:02:02;;;;;;;10.20;3.97;;;;;;;43.99;18.09;98727.44;5025620;28;20447;-85
2022/08/30 06:04:28;;;;;;;12.73;3.80;;;;;;;44.12;17.74;98720.00;5029354;28;20032;-88
2022/08/30 06:06:53;;;;;;;12.20;3.60;;;;;;;44.23;17.39;98726.72;5032405;28;20357;-92
2022/08/30 06:09:19;;;;;;;9.63;3.83;;;;;;;44.36;17.67;98724.78;5012725;28;20064;-91
2022/08/30 06:11:44;;;;;;;13.43;3.67;;;;;;;44.47;17.50;98725.13;5025443;28;20029;-84
2022/08/30 06:14:10;;;;;;;13.60;3.53;;;;;;;44.51;17.07;98725.25;5019373;28;20040;-82
2022/08/30 06:16:37;;;;;;;15.20;3.70;;;;;;;44.59;16.97;98736.16;5052777;28;20496;-83
2022/08/30 06:19:03;;;;;;;16.77;4.05;;;;;;;44.60;17.79;98737.78;5002804;28;20047;-81
2022/08/30 06:21:30;;;;;;;11.93;3.53;;;;;;;44.58;17.82;98734.53;5001972;28;20127;-80
2022/08/30 06:23:56;;;;;;;15.70;3.60;;;;;;;44.67;17.90;98745.44;5052500;28;20133;-76
2022/08/30 06:26:21;;;;;;;15.33;3.67;;;;;;;44.73;17.45;98748.78;5052110;28;20515;-80
2022/08/30 06:28:48;;;;;;;15.83;3.67;;;;;;;44.74;17.56;98744.88;5035229;28;20491;-78
2022/08/30 06:31:14;;;;;;;12.55;3.88;;;;;;;44.72;17.64;98747.97;5052424;28;20029;-80
2022/08/30 06:33:39;;;;;;;12.98;3.60;;;;;;;44.78;17.53;98748.53;5016875;28;20043;-79
2022/08/30 06:36:07;;;;;;;13.67;3.70;;;;;;;44.82;17.93;98748.66;5034421;28;20032;-77
2022/08/30 06:38:32;;;;;;;8.00;3.70;;;;;;;44.88;17.69;98747.28;5017832;28;20036;-83
2022/08/30 06:40:58;;;;;;;14.07;3.67;;;;;;;44.97;17.72;98756.22;5017615;28;20480;-83
2022/08/30 06:43:23;;;;;;;7.53;3.50;;;;;;;45.07;17.45;98747.50;5018381;28;20416;-80
2022/08/30 06:45:49;;;;;;;14.13;3.50;;;;;;;45.12;17.46;98750.03;5052404;28;20025;-79
2022/08/30 06:48:14;;;;;;;15.77;3.87;;;;;;;45.20;17.14;98747.47;4998781;28;20036;-81
2022/08/30 06:50:40;;;;;;;12.17;3.80;;;;;;;45.30;16.99;98749.75;4997246;28;20045;-83
2022/08/30 06:53:07;;;;;;;12.45;3.22;;;;;;;45.36;17.37;98744.78;5014632;28;20033;-78
2022/08/30 06:55:32;;;;;;;12.50;3.42;;;;;;;45.43;16.92;98756.84;5031257;28;20034;-80
2022/08/30 06:57:59;;;;;;;17.63;3.83;;;;;;;45.52;16.90;98756.72;4998381;28;20484;-78
2022/08/30 07:00:25;;;;;;;9.80;3.08;;;;;;;45.61;17.25;98751.84;5015190;28;20562;-76
2022/08/30 07:02:50;;;;;;;10.27;3.50;;;;;;;45.69;16.80;98764.66;5032636;28;20033;-78
2022/08/30 07:05:16;;;;;;;8.93;3.27;;;;;;;45.75;16.41;98756.13;5001246;28;20033;-78
2022/08/30 07:07:42;;;;;;;9.73;2.88;;;;;;;45.78;16.51;98752.72;5017445;28;20048;-78
2022/08/30 07:10:08;;;;;;;7.43;2.97;;;;;;;45.83;16.31;98756.03;5001009;28;20053;-77
2022/08/30 07:12:35;;;;;;;9.10;3.50;;;;;;;45.92;16.32;98760.56;5049905;28;20033;-78
2022/08/30 07:15:02;;;;;;;10.77;3.03;;;;;;;45.95;16.36;98757.09;5017505;28;20039;-77
2022/08/30 07:20:12;;;;;;;11.35;2.85;;;;;;;46.05;16.44;98767.59;5022488;28;20459;-78
2022/08/30 07:22:37;;;;;;;8.73;3.03;;;;;;;46.11;16.17;98763.44;5021746;28;20032;-93
2022/08/30 07:25:03;;;;;;;9.37;3.00;;;;;;;46.17;16.12;98766.78;5008639;28;20033;-77
2022/08/30 07:27:29;;;;;;;9.27;3.30;;;;;;;46.21;15.57;98767.66;5021296;28;20029;-91
2022/08/30 07:29:58;;;;;;;9.98;3.00;;;;;;;46.23;15.58;98768.91;5029224;28;20056;-92
2022/08/30 07:32:24;;;;;;;11.93;3.42;;;;;;;46.26;15.90;98767.41;5044272;28;20093;-92
2022/08/30 07:34:53;;;;;;;10.27;3.05;;;;;;;46.30;16.02;98770.25;5046032;28;20036;-93
2022/08/30 07:39:50;;;;;;;12.25;3.03;;;;;;;46.27;15.28;98754.41;5088418;28;20048;-94
2022/08/30 07:42:16;;;;;;;10.88;3.28;;;;;;;46.31;16.01;98758.88;5087745;28;20120;-91
2022/08/30 07:44:43;;;;;;;;;;;;;;;46.28;15.19;98765.09;5029131;28;20033;-89
2022/08/30 07:47:09;;;;;;;9.60;3.13;;;;;;;46.31;15.11;98755.31;5039059;28;19912;-90
2022/08/30 07:49:36;;;;;;;11.27;3.42;;;;;;;46.37;15.69;98764.91;5061967;28;20035;-91
2022/08/30 07:52:03;;;;;;;10.15;3.13;;;;;;;46.35;15.11;98759.72;5050372;28;20036;-94
2022/08/30 07:59:39;;;;;;;12.20;3.28;;;;;;;46.42;15.56;98756.38;5241141;22;20070;-91
2022/08/30 08:02:04;;;;;;;12.50;2.80;;;;;;;46.51;15.22;98762.50;5149353;23;20053;-86
2022/08/30 08:04:30;;;;;;;10.57;2.90;;;;;;;46.57;15.26;98763.84;5025693;28;20296;-86
2022/08/30 08:06:57;;;;;;;12.57;3.10;;;;;;;46.63;15.64;98755.31;5037438;28;20412;-88
2022/08/30 08:09:22;;;;;;;9.55;3.28;;;;;;;46.68;15.45;98764.09;5016468;28;20072;-78
2022/08/30 08:11:48;;;;;;;10.13;3.00;;;;;;;46.76;15.21;98759.56;5013878;28;20033;-77
2022/08/30 08:14:13;;;;;;;9.37;3.33;;;;;;;46.77;15.62;98763.94;5030011;28;20057;-79
2022/08/30 08:16:41;;;;;;;7.70;2.93;;;;;;;46.86;15.04;98769.25;5013140;28;20041;-79
2022/08/30 08:19:07;;;;;;;7.63;3.05;;;;;;;46.92;15.11;98760.38;5013697;28;20515;-80
2022/08/30 08:21:33;;;;;;;8.82;2.92;;;;;;;46.94;15.36;98755.28;5013618;28;20416;-81
2022/08/30 08:23:59;;;;;;;8.87;2.80;;;;;;;47.02;15.50;98755.44;5030099;28;20029;-84
2022/08/30 08:26:24;;;;;;;8.93;3.00;;;;;;;46.74;15.47;98750.84;5012965;28;20496;-84
2022/08/30 08:28:50;;;;;;;6.30;2.57;;;;;;;46.53;15.83;98751.91;5013561;28;20025;-80
2022/08/30 08:31:17;;;;;;;7.50;2.93;;;;;;;46.61;15.39;98749.34;5030796;28;20025;-81
2022/08/30 08:33:43;;;;;;;10.50;2.92;;;;;;;46.66;15.35;98749.88;5032913;28;20029;-82
2022/08/30 08:36:08;;;;;;;10.02;2.78;;;;;;;46.57;15.54;98743.75;5016742;28;20048;-84
2022/08/30 08:38:35;;;;;;;10.63;3.00;;;;;;;46.56;15.50;98747.66;5049777;28;20025;-82
2022/08/30 08:41:12;;;;;;;8.85;3.28;;;;;;;46.53;15.42;98749.16;5033236;28;20094;-80
2022/08/30 08:43:37;;;;;;;7.57;2.72;;;;;;;46.43;15.52;98746.91;5033282;28;20028;-77
2022/08/30 08:46:09;;;;;;;8.63;3.07;;;;;;;46.13;15.66;98741.84;5049631;28;20032;-76
2022/08/30 08:48:37;;;;;;;10.13;2.80;;;;;;;45.89;16.21;98744.72;5034610;28;20492;-86
2022/08/30 08:54:00;;;;;;;9.25;3.17;;;;;;;45.24;16.36;98740.91;5027224;28;20047;-79
2022/08/30 08:56:26;;;;;;;10.43;3.33;;;;;;;45.12;16.34;98740.94;5033550;28;20021;-76
2022/08/30 08:58:55;;;;;;;6.20;3.10;;;;;;;45.01;16.96;98745.31;5027194;28;20719;-80
2022/08/30 09:01:26;;;;;;;10.52;2.90;;;;;;;45.11;17.15;98742.91;5043297;28;20052;-76
2022/08/30 09:03:52;;;;;;;9.93;3.00;;;;;;;45.21;16.90;98743.56;5040535;28;20033;-79
2022/08/30 09:06:23;;;;;;;7.70;3.53;;;;;;;45.28;16.68;98728.06;5026086;28;20044;-86
2022/08/30 09:08:49;;;;;;;9.05;3.53;;;;;;;45.22;16.46;98734.16;5049445;28;20120;-85
2022/08/30 09:11:24;;;;;;;10.03;2.83;;;;;;;44.94;16.65;98732.91;5041885;28;20026;-81
2022/08/30 09:13:50;;;;;;;9.43;3.17;;;;;;;44.71;16.65;98734.53;5016140;28;20049;-83
2022/08/30 09:17:04;;;;;;;7.07;2.85;;;;;;;44.72;16.76;98727.91;5041212;28;20032;-87
2022/08/30 09:19:45;;;;;;;6.07;2.40;;;;;;;44.60;16.66;98718.50;5027823;28;20114;-83
2022/08/30 09:22:38;;;;;;;10.13;2.90;;;;;;;44.50;16.96;98718.94;5043599;28;20021;-82
2022/08/30 09:25:27;;;;;;;10.55;3.10;;;;;;;44.41;16.74;98712.75;5022840;28;20033;-84
2022/08/30 09:27:53;;;;;;;6.10;2.70;;;;;;;44.38;17.23;98705.97;5009965;28;20029;-81
2022/08/30 09:30:20;;;;;;;5.93;2.63;;;;;;;44.36;17.00;98708.28;5032310;28;20033;-83
2022/08/30 09:32:52;;;;;;;;;;;;;;;44.35;17.58;98706.66;5042684;28;20033;-86
2022/08/30 09:35:25;;;;;;;4.43;2.85;;;;;;;44.34;17.08;98701.50;5026504;28;19979;-82
2022/08/30 09:37:53;;;;;;;4.93;2.70;;;;;;;44.29;17.86;98693.50;5040808;28;20499;-80
2022/08/30 09:40:33;;;;;;;7.25;2.60;;;;;;;44.22;17.79;98694.06;5040516;28;20021;-83
2022/08/30 09:43:08;;;;;;;11.43;2.90;;;;;;;44.22;17.75;98692.09;5026768;28;20503;-82
2022/08/30 09:45:39;;;;;;;7.88;3.30;;;;;;;44.18;17.62;98685.66;5038447;28;20029;-81
2022/08/30 09:48:31;;;;;;;6.13;2.60;;;;;;;44.04;17.79;98688.72;5025397;28;20052;-79
2022/08/30 09:51:13;;;;;;;8.63;3.05;;;;;;;43.99;17.77;98680.69;5058519;28;20009;-80
2022/08/30 09:53:42;;;;;;;7.25;2.97;;;;;;;43.97;18.41;98680.25;5042151;28;20033;-82
2022/08/30 09:56:26;;;;;;;10.25;3.00;;;;;;;43.82;19.11;98687.19;5053086;28;20033;-86
2022/08/30 09:59:16;;;;;;;7.68;2.80;;;;;;;43.79;19.58;98676.91;5036446;28;20039;-85
2022/08/30 10:01:46;;;;;;;9.13;3.05;;;;;;;43.78;19.98;98677.22;5053537;28;20135;-88
2022/08/30 10:04:24;;;;;;;7.28;2.53;;;;;;;43.73;20.07;98673.53;5032675;28;20029;-85
2022/08/30 10:07:11;;;;;;;10.23;2.95;;;;;;;43.70;20.48;98676.16;5032856;28;20573;-86
2022/08/30 10:10:02;;;;;;;9.00;2.90;;;;;;;43.65;20.33;98671.66;5008913;28;20040;-86
2022/08/30 10:12:36;;;;;;;8.98;2.63;;;;;;;43.31;20.88;98665.31;4954720;29;20130;-86
2022/08/30 10:15:04;;;;;;;5.95;2.78;;;;;;;42.98;21.15;98677.06;4937654;29;20071;-86
2022/08/30 10:17:45;;;;;;;11.73;2.75;;;;;;;42.88;21.38;98673.91;4953342;29;20046;-88
2022/08/30 10:20:32;;;;;;;5.53;2.45;;;;;;;42.53;21.64;98663.13;4953650;29;20031;-86
2022/08/30 10:23:05;;;;;;;8.70;2.67;;;;;;;42.26;22.00;98663.25;4939063;29;20059;-86
2022/08/30 10:25:39;;;;;;;9.15;2.80;;;;;;;42.20;22.26;98659.06;4921602;28;20077;-85
2022/08/30 10:28:13;;;;;;;6.30;2.60;;;;;;;42.10;22.11;98649.25;4938032;29;20039;-86
2022/08/30 10:30:41;;;;;;;10.20;2.58;;;;;;;42.09;22.11;98652.31;4937778;29;20047;-86
2022/08/30 10:33:20;;;;;;;6.93;2.70;;;;;;;41.92;22.32;98647.69;4921613;29;20038;-85
2022/08/30 10:35:47;;;;;;;6.80;3.03;;;;;;;41.79;22.33;98649.53;4937595;28;20221;-86
2022/08/30 10:38:20;;;;;;;7.30;2.30;;;;;;;41.79;21.92;98645.97;4937568;29;20039;-85
2022/08/30 10:43:56;;;;;;;5.05;2.40;;;;;;;41.83;22.24;98636.78;4939810;29;20046;-86
2022/08/30 10:46:36;;;;;;;7.30;2.80;;;;;;;41.76;22.15;98641.94;4953119;28;20466;-86
2022/08/30 10:49:03;;;;;;;3.80;2.13;;;;;;;41.54;22.21;98631.97;4963792;28;20034;-86
2022/08/30 10:51:32;;;;;;;4.00;2.45;;;;;;;41.41;22.38;98633.78;4959437;28;20042;-86
2022/08/30 10:54:09;;;;;;;5.30;2.67;;;;;;;41.36;22.60;98632.00;4975762;28;20112;-87
2022/08/30 10:56:34;;;;;;;7.25;2.67;;;;;;;41.31;22.58;98640.41;4960052;28;20113;-85
2022/08/30 10:59:00;;;;;;;5.45;2.50;;;;;;;41.17;23.07;98632.31;4976065;28;20125;-87
2022/08/30 11:02:02;;;;;;;5.68;2.78;;;;;;;41.16;22.39;98621.69;4976502;28;20058;-86
2022/08/30 11:05:25;;;;;;;5.47;2.40;;;;;;;41.10;22.55;98625.72;4991673;28;20038;-87
2022/08/30 11:08:05;;;;;;;5.00;2.20;;;;;;;40.95;22.58;98625.06;4953272;29;20111;-88
2022/08/30 11:10:49;;;;;;;7.45;2.75;;;;;;;40.68;22.94;98623.41;4945546;28;20047;-83
2022/08/30 11:13:22;;;;;;;9.63;3.10;;;;;;;40.45;22.97;98626.25;4960785;28;20473;-79
2022/08/30 11:15:57;;;;;;;6.80;2.95;;;;;;;40.20;23.21;98618.75;4968918;28;20039;-78
2022/08/30 11:18:24;;;;;;;6.20;2.85;;;;;;;40.04;22.39;98616.44;4969738;28;20494;-79
2022/08/30 11:20:54;;;;;;;7.80;2.95;;;;;;;39.88;21.99;98618.75;4969684;28;20093;-80
2022/08/30 11:23:33;;;;;;;8.68;3.13;;;;;;;39.72;22.30;98614.81;4983093;28;20477;-82
2022/08/30 11:26:06;;;;;;;12.00;3.13;;;;;;;39.53;22.13;98610.38;4998006;28;20053;-79
2022/08/30 11:28:34;;;;;;;10.77;3.20;;;;;;;39.36;22.15;98608.31;4984303;28;20083;-79
2022/08/30 11:31:03;;;;;;;11.43;2.92;;;;;;;39.19;22.04;98605.44;5003724;28;20037;-81
2022/08/30 11:33:40;;;;;;;9.45;3.20;;;;;;;38.99;22.12;98599.34;5000839;28;20029;-85
2022/08/30 11:36:05;;;;;;;9.02;3.47;;;;;;;38.80;22.69;98599.50;4968059;28;20065;-78
2022/08/30 11:38:31;;;;;;;9.05;3.20;;;;;;;38.68;22.76;98600.03;4997311;28;20486;-82
2022/08/30 11:40:59;;;;;;;6.43;3.15;;;;;;;38.51;22.55;98592.47;5041661;28;20029;-83
2022/08/30 11:43:34;;;;;;;8.05;3.03;;;;;;;38.43;22.55;98601.38;5043094;28;20547;-80
2022/08/30 11:46:12;;;;;;;10.80;3.35;;;;;;;38.26;23.01;98590.28;5041967;28;20086;-78
2022/08/30 11:48:46;;;;;;;9.68;3.42;;;;;;;38.15;23.17;98576.00;5040633;28;20377;-79
2022/08/30 11:51:24;;;;;;;12.20;3.10;;;;;;;38.10;23.17;98589.75;5040450;28;20022;-80
2022/08/30 11:53:58;;;;;;;7.57;2.83;;;;;;;38.01;23.08;98584.97;5048235;28;20029;-78